Time;durP1;ratioP1;P1;durP2;ratioP2;P2;SDS_P1;SDS_P2;PMS_P1;PMS_P2;Temp;Humidity;BMP_temperature;BMP_pressure;BME280_temperature;BME280_humidity;BME280_pressure;Samples;Min_cycle;Max_cycle;Signal;HPM_P1;HPM_P2
2021/09/14 00:00:06;;;;;;;8.63;5.80;;;15.10;97.30;;;;;;5039509;28;20181;-76
2021/09/14 00:02:31;;;;;;;10.43;6.20;;;15.10;97.30;;;;;;5039538;28;20228;-77
2021/09/14 00:04:57;;;;;;;11.67;5.60;;;15.00;97.30;;;;;;5043382;28;20418;-77
2021/09/14 00:07:23;;;;;;;11.00;7.07;;;15.00;97.30;;;;;;5041508;28;20311;-77
2021/09/14 00:09:48;;;;;;;13.20;6.27;;;15.00;97.30;;;;;;5039806;28;20587;-76
2021/09/14 00:12:14;;;;;;;9.37;6.43;;;14.90;97.30;;;;;;5040117;28;20211;-78
2021/09/14 00:14:39;;;;;;;10.47;6.70;;;14.90;97.30;;;;;;5041045;28;20185;-76
2021/09/14 00:17:05;;;;;;;12.93;7.50;;;14.90;97.30;;;;;;5037747;28;20241;-77
2021/09/14 00:19:30;;;;;;;11.70;6.50;;;14.80;97.30;;;;;;5041576;28;20199;-76
2021/09/14 00:21:56;;;;;;;10.80;6.30;;;14.80;97.30;;;;;;5038273;28;20180;-79
2021/09/14 00:24:21;;;;;;;14.03;6.97;;;14.80;97.30;;;;;;5040654;28;20221;-76
2021/09/14 00:26:47;;;;;;;11.27;6.00;;;14.80;97.30;;;;;;5031644;28;20207;-77
2021/09/14 00:29:13;;;;;;;9.00;5.80;;;14.70;97.30;;;;;;5029785;28;20176;-77
2021/09/14 00:31:38;;;;;;;11.57;7.00;;;14.60;97.30;;;;;;5031070;28;20180;-77
2021/09/14 00:34:04;;;;;;;10.97;6.07;;;14.60;97.30;;;;;;5029548;28;20205;-77
2021/09/14 00:36:29;;;;;;;12.20;6.73;;;14.60;97.30;;;;;;5030076;28;20280;-77
2021/09/14 00:38:55;;;;;;;13.50;6.40;;;14.50;97.30;;;;;;5029613;28;20216;-77
2021/09/14 00:41:20;;;;;;;11.40;6.27;;;14.50;97.30;;;;;;5029480;28;20645;-77
2021/09/14 00:43:58;;;;;;;13.53;6.53;;;14.50;97.30;;;;;;5029459;28;20239;-77
2021/09/14 00:46:24;;;;;;;15.20;6.83;;;14.50;97.30;;;;;;5031113;28;20199;-76
2021/09/14 00:48:50;;;;;;;10.17;6.50;;;14.50;97.30;;;;;;5039654;28;20410;-77
2021/09/14 00:51:15;;;;;;;12.50;6.50;;;14.50;97.30;;;;;;5031884;28;20850;-77
2021/09/14 00:53:41;;;;;;;12.17;7.10;;;14.50;97.30;;;;;;5029096;28;20226;-77
2021/09/14 00:56:07;;;;;;;9.97;6.30;;;14.50;97.30;;;;;;5030404;28;20554;-77
2021/09/14 00:58:33;;;;;;;11.80;6.90;;;14.50;97.30;;;;;;5029100;28;20533;-77
2021/09/14 01:00:59;;;;;;;10.17;5.97;;;14.40;97.30;;;;;;5030373;28;20887;-78
2021/09/14 01:03:24;;;;;;;13.23;6.73;;;14.40;97.30;;;;;;5029008;28;20236;-76
2021/09/14 01:05:50;;;;;;;16.67;6.80;;;14.40;97.30;;;;;;5030310;28;20205;-77
2021/09/14 01:08:17;;;;;;;12.80;7.50;;;14.40;97.30;;;;;;5029105;28;20180;-77
2021/09/14 01:10:44;;;;;;;12.13;6.73;;;14.40;97.30;;;;;;5030827;28;20183;-76
2021/09/14 01:13:10;;;;;;;16.67;7.50;;;14.40;97.30;;;;;;5029192;28;20470;-76
2021/09/14 01:15:35;;;;;;;17.53;7.10;;;14.40;97.30;;;;;;5030928;28;20427;-76
2021/09/14 01:18:03;;;;;;;15.70;7.40;;;14.40;97.30;;;;;;5028596;28;20449;-77
2021/09/14 01:20:29;;;;;;;12.10;7.10;;;14.40;97.30;;;;;;5029060;28;20630;-77
2021/09/14 01:22:54;;;;;;;19.00;7.53;;;14.40;97.30;;;;;;5030019;28;20984;-77
2021/09/14 01:25:23;;;;;;;13.40;7.83;;;14.40;97.30;;;;;;5044179;28;20180;-77
2021/09/14 01:27:49;;;;;;;11.90;7.60;;;14.40;97.30;;;;;;5048657;28;20232;-77
2021/09/14 01:30:19;;;;;;;13.17;7.80;;;14.40;97.30;;;;;;5049872;28;20407;-78
2021/09/14 01:32:47;;;;;;;12.70;8.47;;;14.40;97.30;;;;;;5048531;28;20444;-77
2021/09/14 01:35:25;;;;;;;14.30;8.43;;;14.40;97.30;;;;;;5048641;28;20812;-76
2021/09/14 01:37:51;;;;;;;15.10;7.87;;;14.40;97.30;;;;;;5048458;28;20429;-77
2021/09/14 01:40:18;;;;;;;15.73;7.43;;;14.40;97.30;;;;;;5048601;28;20414;-77
2021/09/14 01:42:44;;;;;;;14.53;7.63;;;14.40;97.30;;;;;;5049772;28;20786;-77
2021/09/14 01:45:10;;;;;;;13.67;7.10;;;14.40;97.30;;;;;;5049817;28;20442;-78
2021/09/14 01:47:36;;;;;;;11.10;6.80;;;14.40;97.30;;;;;;5048682;28;20458;-77
2021/09/14 01:50:04;;;;;;;12.60;7.80;;;14.40;97.30;;;;;;5048312;28;20463;-77
2021/09/14 01:52:31;;;;;;;15.13;7.73;;;14.30;97.30;;;;;;5049705;28;20191;-77
2021/09/14 01:54:57;;;;;;;12.67;7.73;;;14.30;97.30;;;;;;5048789;28;20406;-77
2021/09/14 01:57:27;;;;;;;14.90;8.50;;;14.30;97.30;;;;;;5048809;28;20429;-76
2021/09/14 01:59:55;;;;;;;16.70;7.67;;;14.30;97.30;;;;;;5048788;28;20171;-77
2021/09/14 02:02:55;;;;;;;13.57;7.47;;;14.30;97.30;;;;;;5049637;28;20481;-76
2021/09/14 02:05:12;;;;;;;13.50;7.83;;;14.30;97.30;;;;;;5049561;28;20683;-77
2021/09/14 02:58:53;;;;;;;11.50;7.00;;;14.00;97.30;;;;;;5043756;28;20811;-78
2021/09/14 03:01:21;;;;;;;13.87;7.13;;;14.00;97.30;;;;;;5049922;28;20430;-77
2021/09/14 03:03:49;;;;;;;13.87;6.70;;;14.00;97.30;;;;;;5050996;28;20567;-76
2021/09/14 03:06:14;;;;;;;14.73;7.53;;;14.00;97.30;;;;;;5050868;28;20461;-76
2021/09/14 03:08:41;;;;;;;15.07;7.77;;;14.00;97.30;;;;;;5052525;28;20415;-77
2021/09/14 03:11:12;;;;;;;14.13;7.50;;;13.90;97.30;;;;;;5050951;28;20266;-77
2021/09/14 03:13:39;;;;;;;16.37;7.40;;;13.90;97.30;;;;;;5051192;28;20824;-76
2021/09/14 03:16:05;;;;;;;11.67;6.87;;;13.90;97.30;;;;;;5051389;28;20479;-77
2021/09/14 03:18:31;;;;;;;10.50;6.43;;;13.90;97.30;;;;;;5049860;28;20422;-77
2021/09/14 03:20:56;;;;;;;16.27;7.93;;;13.90;97.30;;;;;;5052530;28;20426;-77
2021/09/14 03:23:22;;;;;;;15.23;8.17;;;13.90;97.30;;;;;;5050799;28;20230;-76
2021/09/14 03:25:47;;;;;;;11.17;7.17;;;13.90;97.30;;;;;;5051108;28;20258;-76
2021/09/14 03:28:13;;;;;;;13.90;6.57;;;13.90;97.30;;;;;;5052492;28;20184;-77
2021/09/14 03:30:39;;;;;;;11.47;6.90;;;13.90;97.30;;;;;;5047731;28;20227;-76
2021/09/14 03:33:04;;;;;;;12.20;7.50;;;13.90;97.30;;;;;;5031109;28;20207;-76
2021/09/14 03:35:30;;;;;;;13.00;7.20;;;13.90;97.30;;;;;;5031944;28;20205;-76
2021/09/14 03:37:57;;;;;;;15.20;7.30;;;13.80;97.30;;;;;;5030747;28;20207;-76
2021/09/14 03:40:23;;;;;;;14.23;7.77;;;13.90;97.30;;;;;;5031799;28;20590;-76
2021/09/14 03:42:48;;;;;;;12.60;6.90;;;13.90;97.30;;;;;;5039449;28;20438;-76
2021/09/14 03:45:14;;;;;;;13.20;6.60;;;13.90;97.30;;;;;;5051538;28;20266;-77
2021/09/14 03:47:40;;;;;;;16.00;7.10;;;13.90;97.30;;;;;;5051715;28;20544;-76
2021/09/14 03:50:06;;;;;;;11.90;7.07;;;13.90;97.30;;;;;;5030639;28;20472;-76
2021/09/14 03:52:32;;;;;;;12.00;7.40;;;13.80;97.30;;;;;;5030379;28;20197;-76
2021/09/14 03:54:57;;;;;;;18.07;7.47;;;13.80;97.30;;;;;;5030622;28;20565;-76
2021/09/14 03:57:23;;;;;;;13.03;6.30;;;13.80;97.30;;;;;;5031366;28;20638;-77
2021/09/14 03:59:49;;;;;;;13.03;7.77;;;13.80;97.30;;;;;;5030407;28;20199;-77
2021/09/14 04:10:07;;;;;;;10.03;6.43;;;13.80;97.30;;;;;;5051369;28;20460;-76
2021/09/14 04:12:33;;;;;;;13.50;7.70;;;13.80;97.30;;;;;;5049360;28;20489;-76
2021/09/14 04:14:59;;;;;;;16.30;7.13;;;13.80;97.30;;;;;;5038357;28;20426;-76
2021/09/14 04:17:25;;;;;;;20.20;6.90;;;13.80;97.30;;;;;;5049618;28;20176;-76
2021/09/14 04:19:50;;;;;;;13.00;8.00;;;13.80;97.30;;;;;;5048804;28;20411;-76
2021/09/14 04:22:16;;;;;;;14.40;7.90;;;13.70;97.30;;;;;;5048506;28;20199;-76
2021/09/14 04:24:42;;;;;;;13.63;8.13;;;13.70;97.30;;;;;;5049682;28;20588;-76
2021/09/14 04:27:09;;;;;;;14.07;8.10;;;13.70;97.30;;;;;;5044608;28;20215;-76
2021/09/14 04:29:35;;;;;;;13.83;7.70;;;13.70;97.30;;;;;;5029248;28;20180;-76
2021/09/14 04:32:01;;;;;;;16.20;8.00;;;13.70;97.30;;;;;;5030679;28;20955;-75
2021/09/14 04:34:26;;;;;;;14.83;8.07;;;13.80;97.30;;;;;;5031102;28;20673;-76
2021/09/14 04:36:55;;;;;;;11.73;6.87;;;13.80;97.30;;;;;;5036113;28;20183;-76
2021/09/14 04:39:20;;;;;;;17.50;7.73;;;13.80;97.30;;;;;;5050861;28;20590;-76
2021/09/14 04:41:47;;;;;;;15.37;7.83;;;13.80;97.30;;;;;;5049372;28;20461;-76
2021/09/14 04:44:12;;;;;;;12.23;7.50;;;13.80;97.30;;;;;;5048199;28;20645;-77
2021/09/14 04:46:38;;;;;;;15.47;8.07;;;13.90;97.30;;;;;;5048541;28;20587;-77
2021/09/14 04:49:04;;;;;;;13.00;7.57;;;13.90;97.30;;;;;;5039432;28;20195;-77
2021/09/14 04:51:31;;;;;;;15.30;7.60;;;13.90;97.30;;;;;;5028408;28;20267;-76
2021/09/14 04:53:56;;;;;;;12.97;7.23;;;13.90;97.30;;;;;;5029318;28;20446;-76
2021/09/14 04:56:22;;;;;;;14.50;6.93;;;13.90;97.30;;;;;;5030317;28;20506;-76
2021/09/14 04:58:49;;;;;;;17.53;7.50;;;14.00;97.30;;;;;;5030749;28;20224;-77
2021/09/14 05:01:16;;;;;;;16.53;8.50;;;13.90;97.30;;;;;;5029539;28;20242;-76
2021/09/14 05:03:42;;;;;;;12.10;7.73;;;13.90;97.30;;;;;;5028628;28;20474;-77
2021/09/14 05:06:07;;;;;;;14.90;8.60;;;13.90;97.30;;;;;;5030226;28;20463;-77
2021/09/14 05:08:34;;;;;;;19.27;8.17;;;13.90;97.30;;;;;;5028918;28;20777;-76
2021/09/14 05:11:05;;;;;;;15.20;8.00;;;13.90;97.30;;;;;;5029500;28;20206;-76
2021/09/14 05:13:31;;;;;;;18.27;8.30;;;13.90;97.30;;;;;;5041939;28;20446;-76
2021/09/14 05:15:57;;;;;;;16.40;7.53;;;13.90;97.30;;;;;;5042550;28;20491;-77
2021/09/14 05:18:24;;;;;;;13.13;7.00;;;13.80;97.30;;;;;;5049029;28;20203;-77
2021/09/14 05:20:51;;;;;;;16.77;7.10;;;13.80;97.30;;;;;;5048625;28;20425;-77
2021/09/14 05:23:23;;;;;;;14.87;7.07;;;13.80;97.30;;;;;;5049121;28;20446;-77
2021/09/14 05:25:49;;;;;;;16.00;7.97;;;13.90;97.30;;;;;;5048640;28;20604;-77
2021/09/14 05:28:15;;;;;;;14.23;8.30;;;13.80;97.30;;;;;;5048970;28;20501;-77
2021/09/14 05:30:43;;;;;;;14.00;7.40;;;13.90;97.30;;;;;;5049833;28;20168;-77
2021/09/14 05:33:09;;;;;;;16.17;8.43;;;13.90;97.30;;;;;;5048443;28;20533;-76
2021/09/14 05:35:47;;;;;;;12.03;6.50;;;13.90;97.30;;;;;;5048907;28;20505;-76
2021/09/14 05:38:14;;;;;;;17.83;6.97;;;13.90;97.30;;;;;;5048642;28;20183;-76
2021/09/14 05:40:40;;;;;;;12.63;7.43;;;13.90;97.30;;;;;;5048074;28;20418;-77
2021/09/14 05:43:06;;;;;;;14.23;6.60;;;13.90;97.30;;;;;;5048340;28;20500;-77
2021/09/14 05:45:32;;;;;;;14.33;7.27;;;13.90;97.30;;;;;;5048258;28;20184;-77
2021/09/14 05:47:58;;;;;;;15.67;8.17;;;14.00;97.30;;;;;;5047839;28;20740;-77
2021/09/14 05:50:24;;;;;;;16.90;7.70;;;14.00;97.30;;;;;;5028410;28;20642;-76
2021/09/14 05:52:50;;;;;;;15.37;7.60;;;14.00;97.30;;;;;;5029787;28;20426;-76
2021/09/14 05:55:15;;;;;;;14.50;7.73;;;14.00;97.30;;;;;;5029718;28;20180;-76
2021/09/14 05:57:41;;;;;;;19.50;8.37;;;14.10;97.30;;;;;;5028835;28;20245;-76
2021/09/14 06:00:08;;;;;;;17.03;8.17;;;14.10;97.30;;;;;;5028391;28;20185;-76
2021/09/14 06:02:33;;;;;;;17.33;8.17;;;14.10;97.30;;;;;;5027927;28;20455;-77
2021/09/14 06:04:59;;;;;;;20.33;9.30;;;14.10;97.30;;;;;;5029312;28;20422;-76
2021/09/14 06:07:24;;;;;;;23.20;8.77;;;14.20;97.30;;;;;;5028698;28;20204;-76
2021/09/14 06:09:50;;;;;;;18.07;9.43;;;14.20;97.30;;;;;;5032148;28;20688;-76
2021/09/14 06:12:15;;;;;;;19.50;9.90;;;14.20;97.30;;;;;;5033806;28;20581;-77
2021/09/14 06:14:41;;;;;;;16.70;9.30;;;14.30;97.30;;;;;;5028285;28;20561;-76
2021/09/14 06:17:07;;;;;;;18.83;9.83;;;14.30;97.30;;;;;;5029483;28;20200;-76
2021/09/14 06:19:32;;;;;;;19.63;9.90;;;14.40;97.30;;;;;;5028453;28;20367;-76
2021/09/14 06:21:58;;;;;;;27.57;11.33;;;14.40;97.30;;;;;;5027887;28;20248;-77
2021/09/14 06:24:23;;;;;;;21.83;10.73;;;14.40;97.30;;;;;;5028272;28;20172;-76
2021/09/14 06:26:49;;;;;;;30.00;11.97;;;14.50;97.30;;;;;;5038246;28;20686;-76
2021/09/14 06:29:14;;;;;;;19.77;11.53;;;14.50;97.30;;;;;;5046218;28;20245;-77
2021/09/14 06:31:40;;;;;;;22.63;13.77;;;14.60;97.30;;;;;;5044918;28;20184;-77
2021/09/14 06:34:05;;;;;;;21.83;12.07;;;14.60;97.30;;;;;;5037059;28;20205;-76
2021/09/14 06:36:31;;;;;;;28.27;14.20;;;14.70;97.30;;;;;;5028144;28;20204;-76
2021/09/14 06:38:57;;;;;;;22.77;11.40;;;14.80;97.30;;;;;;5029378;28;20548;-77
2021/09/14 06:41:22;;;;;;;27.10;14.07;;;14.80;97.30;;;;;;5028049;28;20546;-76
2021/09/14 06:43:48;;;;;;;32.37;12.80;;;14.90;97.30;;;;;;5028314;28;20287;-77
2021/09/14 06:46:14;;;;;;;27.30;13.70;;;15.00;97.30;;;;;;5030171;28;20625;-76
2021/09/14 06:48:39;;;;;;;27.80;14.33;;;15.00;97.30;;;;;;5040879;28;20215;-76
2021/09/14 06:51:05;;;;;;;28.00;14.40;;;15.10;97.30;;;;;;5028223;28;20180;-76
2021/09/14 06:53:31;;;;;;;27.80;13.80;;;15.20;97.30;;;;;;5030850;28;20274;-76
2021/09/14 06:55:57;;;;;;;26.77;14.77;;;15.30;97.30;;;;;;5032932;28;20196;-76
2021/09/14 06:58:22;;;;;;;29.30;15.13;;;15.40;97.30;;;;;;5032016;28;20454;-76
2021/09/14 07:00:48;;;;;;;33.17;16.60;;;15.40;97.30;;;;;;5032899;28;20172;-76
2021/09/14 07:03:14;;;;;;;26.40;15.60;;;15.50;97.30;;;;;;5031674;28;20847;-76
2021/09/14 07:05:40;;;;;;;28.10;14.70;;;15.60;97.30;;;;;;5031653;28;20674;-76
2021/09/14 07:08:05;;;;;;;33.93;17.20;;;15.70;97.30;;;;;;5031702;28;20208;-75
2021/09/14 07:10:31;;;;;;;31.40;16.73;;;15.70;97.30;;;;;;5032878;28;20612;-75
2021/09/14 07:12:57;;;;;;;36.03;17.87;;;15.80;97.30;;;;;;5032701;28;20751;-75
2021/09/14 07:15:22;;;;;;;28.57;15.87;;;15.90;97.30;;;;;;5031675;28;20634;-76
2021/09/14 07:17:48;;;;;;;36.50;18.80;;;16.00;97.30;;;;;;5031782;28;20184;-76
2021/09/14 07:20:14;;;;;;;35.20;17.77;;;16.10;97.30;;;;;;5033111;28;20192;-76
2021/09/14 07:22:39;;;;;;;32.57;17.60;;;16.20;97.30;;;;;;5032553;28;20208;-76
2021/09/14 07:25:06;;;;;;;29.00;16.27;;;16.30;97.30;;;;;;5031544;28;20181;-76
2021/09/14 07:27:32;;;;;;;33.90;16.23;;;16.40;97.30;;;;;;5031564;28;20335;-75
2021/09/14 07:29:58;;;;;;;35.60;17.73;;;16.50;97.30;;;;;;5031123;28;20510;-76
2021/09/14 07:32:24;;;;;;;29.63;16.37;;;16.50;97.30;;;;;;5031420;28;20431;-76
2021/09/14 07:34:49;;;;;;;28.80;16.40;;;16.70;97.30;;;;;;5032949;28;20627;-76
2021/09/14 07:37:15;;;;;;;26.37;14.40;;;16.70;97.30;;;;;;5031449;28;20189;-76
2021/09/14 07:39:41;;;;;;;25.13;14.90;;;16.80;97.30;;;;;;5030762;28;20180;-76
2021/09/14 07:42:06;;;;;;;28.33;15.33;;;16.90;97.30;;;;;;5030993;28;20191;-76
2021/09/14 07:44:32;;;;;;;32.60;15.60;;;17.00;97.30;;;;;;5032699;28;20209;-76
2021/09/14 07:46:57;;;;;;;27.80;14.90;;;17.10;97.30;;;;;;5031068;28;20236;-76
2021/09/14 07:49:23;;;;;;;27.13;13.70;;;17.20;97.30;;;;;;5031280;28;20559;-75
2021/09/14 07:51:48;;;;;;;34.27;14.40;;;17.20;97.30;;;;;;5030715;28;20759;-76
2021/09/14 07:54:14;;;;;;;25.63;14.20;;;17.30;97.30;;;;;;5032519;28;20298;-76
2021/09/14 07:56:40;;;;;;;30.03;14.90;;;17.40;97.30;;;;;;5031797;28;20600;-75
2021/09/14 07:59:05;;;;;;;25.10;13.83;;;17.50;97.30;;;;;;5032176;28;20179;-76
2021/09/14 08:01:31;;;;;;;24.20;13.97;;;17.60;97.30;;;;;;5030626;28;20638;-75
2021/09/14 08:03:56;;;;;;;21.53;13.37;;;17.70;97.30;;;;;;5029784;28;20243;-75
2021/09/14 08:06:22;;;;;;;22.73;13.33;;;17.80;97.30;;;;;;5032093;28;20224;-75
2021/09/14 08:08:47;;;;;;;27.00;15.13;;;17.90;97.30;;;;;;5030619;28;20444;-76
2021/09/14 08:11:16;;;;;;;26.77;15.00;;;18.00;97.30;;;;;;5031789;28;20173;-76
2021/09/14 08:13:42;;;;;;;25.90;14.53;;;18.10;97.30;;;;;;5030955;28;20201;-76
2021/09/14 08:16:07;;;;;;;25.70;13.83;;;18.20;97.30;;;;;;5030985;28;20423;-76
2021/09/14 08:18:33;;;;;;;25.60;14.57;;;18.30;97.30;;;;;;5031888;28;20411;-76
2021/09/14 08:20:59;;;;;;;22.40;14.07;;;18.30;97.30;;;;;;5031693;28;20188;-76
2021/09/14 08:23:24;;;;;;;25.87;13.13;;;18.40;97.30;;;;;;5029899;28;20570;-75
2021/09/14 08:25:50;;;;;;;20.17;13.50;;;18.50;97.30;;;;;;5030145;28;20194;-75
2021/09/14 08:28:16;;;;;;;28.70;14.90;;;18.70;97.30;;;;;;5029880;28;20183;-76
2021/09/14 08:30:41;;;;;;;23.03;14.23;;;18.80;97.30;;;;;;5031422;28;20175;-75
2021/09/14 08:33:07;;;;;;;23.73;13.83;;;18.90;97.30;;;;;;5031496;28;20212;-75
2021/09/14 08:35:32;;;;;;;23.40;13.37;;;19.00;97.30;;;;;;5029617;28;20176;-76
2021/09/14 08:37:58;;;;;;;22.73;14.57;;;19.10;97.30;;;;;;5031407;28;20173;-76
2021/09/14 08:40:24;;;;;;;23.10;15.10;;;19.20;97.30;;;;;;5029659;28;20188;-76
2021/09/14 08:42:50;;;;;;;22.43;14.47;;;19.30;97.30;;;;;;5031368;28;20204;-75
2021/09/14 08:45:16;;;;;;;21.30;13.30;;;19.40;97.30;;;;;;5030411;28;20183;-75
2021/09/14 08:47:42;;;;;;;26.33;15.20;;;19.50;97.30;;;;;;5030154;28;20459;-76
2021/09/14 08:50:09;;;;;;;27.03;14.93;;;19.60;97.30;;;;;;5031382;28;20180;-75
2021/09/14 08:52:36;;;;;;;23.37;14.80;;;19.70;97.30;;;;;;5029834;28;20200;-75
2021/09/14 08:55:02;;;;;;;23.30;13.50;;;19.80;97.30;;;;;;5030898;28;20407;-76
2021/09/14 08:57:28;;;;;;;19.83;13.97;;;19.80;97.30;;;;;;5029436;28;20442;-75
2021/09/14 08:59:56;;;;;;;26.63;13.10;;;19.80;97.30;;;;;;5045926;28;20438;-75
2021/09/14 09:02:22;;;;;;;24.30;14.30;;;19.90;97.30;;;;;;5049451;28;20318;-75
2021/09/14 09:05:02;;;;;;;20.43;13.80;;;20.00;97.30;;;;;;5049469;28;20881;-75
2021/09/14 09:07:34;;;;;;;22.60;11.27;;;20.10;97.30;;;;;;5049406;28;20234;-75
2021/09/14 09:10:11;;;;;;;16.93;10.23;;;20.20;97.30;;;;;;5049242;28;20418;-75
2021/09/14 09:12:46;;;;;;;14.13;10.43;;;20.30;97.30;;;;;;5049461;28;20441;-75
2021/09/14 09:15:29;;;;;;;18.07;11.13;;;20.40;97.30;;;;;;5049258;28;20402;-75
2021/09/14 09:18:08;;;;;;;19.40;12.10;;;20.50;97.30;;;;;;5049294;28;20422;-75
2021/09/14 09:20:37;;;;;;;15.10;11.10;;;20.60;97.30;;;;;;5050443;28;20421;-75
2021/09/14 09:23:06;;;;;;;17.10;10.40;;;20.70;97.30;;;;;;5048974;28;20435;-76
2021/09/14 09:25:33;;;;;;;13.73;9.50;;;20.80;97.30;;;;;;5049161;28;20515;-76
2021/09/14 09:28:21;;;;;;;14.90;9.60;;;20.90;97.30;;;;;;5049081;28;20986;-76
2021/09/14 09:30:59;;;;;;;21.03;11.10;;;21.00;97.30;;;;;;5050754;28;20398;-75
2021/09/14 09:33:28;;;;;;;18.67;12.30;;;21.10;97.30;;;;;;5048953;28;20864;-76
2021/09/14 09:36:08;;;;;;;14.20;10.27;;;21.20;97.30;;;;;;5048926;28;20556;-75
2021/09/14 09:38:48;;;;;;;15.67;8.90;;;21.30;97.30;;;;;;5050334;28;20397;-75
2021/09/14 09:41:18;;;;;;;11.47;8.70;;;21.30;97.30;;;;;;5049440;28;20947;-76
2021/09/14 09:43:44;;;;;;;12.77;9.70;;;21.40;97.30;;;;;;5050319;28;20429;-75
2021/09/14 09:46:17;;;;;;;12.63;9.00;;;21.50;97.30;;;;;;5048589;28;20885;-76
2021/09/14 09:48:43;;;;;;;13.17;9.67;;;21.50;97.30;;;;;;5048971;28;20394;-76
2021/09/14 09:51:09;;;;;;;20.20;10.03;;;21.60;97.30;;;;;;5048736;28;20429;-76
2021/09/14 09:53:35;;;;;;;14.23;9.33;;;21.70;97.30;;;;;;5048840;28;20279;-76
2021/09/14 09:56:03;;;;;;;13.10;7.70;;;21.70;97.30;;;;;;5048797;28;20294;-76
2021/09/14 09:58:28;;;;;;;10.53;7.40;;;21.80;97.30;;;;;;5049209;28;20410;-76
2021/09/14 10:01:02;;;;;;;10.20;8.37;;;21.90;97.30;;;;;;5049004;28;20467;-75
2021/09/14 10:03:32;;;;;;;12.73;9.00;;;22.00;97.30;;;;;;5051688;28;20286;-76
2021/09/14 10:06:08;;;;;;;14.33;10.30;;;22.00;97.30;;;;;;5048793;28;20418;-76
2021/09/14 10:08:34;;;;;;;16.43;10.07;;;22.10;97.30;;;;;;5048616;28;20410;-76
2021/09/14 10:10:59;;;;;;;14.37;9.10;;;22.10;97.30;;;;;;5048656;28;20428;-76
2021/09/14 10:13:33;;;;;;;12.43;8.40;;;22.20;97.30;;;;;;5048724;28;20496;-76
2021/09/14 10:15:59;;;;;;;16.20;10.27;;;22.30;96.60;;;;;;5048215;28;20199;-76
2021/09/14 10:18:30;;;;;;;11.87;8.53;;;22.40;97.30;;;;;;5049957;28;20417;-76
2021/09/14 10:20:56;;;;;;;10.93;8.73;;;22.50;97.30;;;;;;5048628;28;20443;-76
2021/09/14 10:23:24;;;;;;;15.77;8.00;;;22.60;97.00;;;;;;5049758;28;20438;-76
2021/09/14 10:26:02;;;;;;;11.47;8.57;;;22.70;97.10;;;;;;5048683;28;20428;-76
2021/09/14 10:28:27;;;;;;;14.60;10.13;;;22.80;96.30;;;;;;5052602;28;20406;-76
2021/09/14 10:30:53;;;;;;;16.00;9.87;;;22.80;96.30;;;;;;5052250;28;20414;-76
2021/09/14 10:33:28;;;;;;;13.80;10.10;;;23.00;96.70;;;;;;5051871;28;20200;-76
2021/09/14 10:35:54;;;;;;;13.77;10.20;;;23.00;96.40;;;;;;5053481;28;20179;-76
2021/09/14 10:38:20;;;;;;;13.23;10.00;;;23.10;95.70;;;;;;5052412;28;20895;-75
2021/09/14 10:40:47;;;;;;;13.63;8.60;;;23.20;95.50;;;;;;5053914;28;20534;-77
2021/09/14 10:43:28;;;;;;;10.23;7.90;;;23.20;95.00;;;;;;5052125;28;20811;-76
2021/09/14 10:45:56;;;;;;;8.73;7.47;;;23.20;94.30;;;;;;5052002;28;20406;-76
2021/09/14 10:48:26;;;;;;;9.37;7.73;;;23.30;95.70;;;;;;5053371;28;20763;-76
2021/09/14 10:50:53;;;;;;;12.90;8.70;;;23.40;95.30;;;;;;5053331;28;20757;-76
2021/09/14 10:53:29;;;;;;;11.50;8.13;;;23.40;94.80;;;;;;5051778;28;20787;-76
2021/09/14 10:55:57;;;;;;;12.90;8.30;;;23.60;95.10;;;;;;5053096;28;20398;-76
2021/09/14 10:58:24;;;;;;;11.70;8.53;;;23.60;93.70;;;;;;5053160;28;20472;-76
2021/09/14 11:00:49;;;;;;;18.13;8.50;;;23.60;94.30;;;;;;5053578;28;20410;-76
2021/09/14 11:03:20;;;;;;;22.73;8.97;;;23.60;94.10;;;;;;5052725;28;20979;-76
2021/09/14 11:05:50;;;;;;;13.50;8.63;;;23.70;95.80;;;;;;5047478;28;20212;-76
2021/09/14 11:08:20;;;;;;;15.70;8.40;;;23.80;95.20;;;;;;5031743;28;20814;-76
2021/09/14 11:10:46;;;;;;;13.33;7.50;;;24.00;95.80;;;;;;5033362;28;20751;-76
2021/09/14 11:13:22;;;;;;;13.20;8.30;;;24.10;95.60;;;;;;5032569;28;20415;-76
2021/09/14 11:16:02;;;;;;;11.90;8.80;;;24.20;93.80;;;;;;5032544;28;20176;-77
2021/09/14 11:18:30;;;;;;;15.30;8.10;;;24.20;94.10;;;;;;5031543;28;20437;-76
2021/09/14 11:21:16;;;;;;;15.93;8.90;;;24.30;93.50;;;;;;5032751;28;20407;-76
2021/09/14 11:23:44;;;;;;;9.70;7.17;;;24.40;93.30;;;;;;5031502;28;20434;-76
2021/09/14 11:26:16;;;;;;;14.50;8.63;;;24.40;92.60;;;;;;5031767;28;20469;-76
2021/09/14 11:28:52;;;;;;;8.80;6.23;;;24.40;92.00;;;;;;5031921;28;20505;-76
2021/09/14 11:31:18;;;;;;;10.00;7.20;;;24.40;91.50;;;;;;5041395;28;20429;-76
2021/09/14 11:33:44;;;;;;;13.80;7.83;;;24.40;92.20;;;;;;5052607;28;20856;-76
2021/09/14 11:36:10;;;;;;;11.83;7.47;;;24.40;92.30;;;;;;5052890;28;20526;-76
2021/09/14 11:38:37;;;;;;;12.73;8.77;;;24.30;91.30;;;;;;5050544;28;20421;-76
2021/09/14 11:41:11;;;;;;;10.73;7.50;;;24.40;92.90;;;;;;5050732;28;20417;-76
2021/09/14 11:43:41;;;;;;;9.53;7.10;;;24.50;93.10;;;;;;5052279;28;20434;-76
2021/09/14 11:46:16;;;;;;;12.03;7.10;;;24.60;92.10;;;;;;5051035;28;20802;-76
2021/09/14 11:48:53;;;;;;;9.80;7.00;;;24.70;93.40;;;;;;5050918;28;20410;-76
2021/09/14 11:51:19;;;;;;;8.90;6.57;;;24.90;92.10;;;;;;5052354;28;20498;-76
2021/09/14 11:53:50;;;;;;;10.63;6.93;;;24.90;90.30;;;;;;5052246;28;20879;-76
2021/09/14 11:56:18;;;;;;;9.60;6.77;;;24.90;91.20;;;;;;5050790;28;20793;-76
2021/09/14 11:58:48;;;;;;;13.53;6.87;;;25.00;92.20;;;;;;5052387;28;21338;-77
2021/09/14 12:01:16;;;;;;;10.10;6.93;;;25.20;93.40;;;;;;5045372;28;20468;-77
2021/09/14 12:03:54;;;;;;;8.90;6.10;;;25.40;91.60;;;;;;5031933;28;21138;-77
2021/09/14 12:06:31;;;;;;;8.17;5.30;;;25.50;91.60;;;;;;5031947;28;20866;-76
2021/09/14 12:09:10;;;;;;;9.23;6.47;;;25.70;91.00;;;;;;5032188;28;20927;-76
2021/09/14 12:11:41;;;;;;;9.40;7.03;;;25.80;89.80;;;;;;5031664;28;20402;-76
2021/09/14 12:14:10;;;;;;;8.40;5.83;;;26.00;92.10;;;;;;5030584;28;20431;-76
2021/09/14 12:16:40;;;;;;;5.97;5.40;;;26.10;90.10;;;;;;5031813;28;20925;-76
2021/09/14 12:19:07;;;;;;;6.50;4.57;;;26.20;90.30;;;;;;5030712;28;20502;-77
2021/09/14 12:21:33;;;;;;;10.23;5.90;;;26.30;88.50;;;;;;5030039;28;20415;-76
2021/09/14 12:23:59;;;;;;;5.60;4.63;;;26.40;87.90;;;;;;5032433;28;20442;-76
2021/09/14 12:26:32;;;;;;;9.27;6.10;;;26.40;89.00;;;;;;5050355;28;20467;-76
2021/09/14 12:28:58;;;;;;;8.40;6.43;;;26.50;87.80;;;;;;5050053;28;20407;-77
2021/09/14 12:31:24;;;;;;;7.07;6.33;;;26.60;87.30;;;;;;5049881;28;20418;-77
2021/09/14 12:33:51;;;;;;;5.73;4.93;;;26.60;87.90;;;;;;5039733;28;20204;-76
2021/09/14 12:36:17;;;;;;;7.17;5.40;;;26.70;87.00;;;;;;5031833;28;20411;-76
2021/09/14 12:38:43;;;;;;;10.07;5.73;;;26.80;86.10;;;;;;5030489;28;20430;-76
2021/09/14 12:41:09;;;;;;;7.33;5.33;;;26.80;87.30;;;;;;5031543;28;20426;-76
2021/09/14 12:43:35;;;;;;;5.73;4.80;;;26.80;86.90;;;;;;5030179;28;20526;-76
2021/09/14 12:46:01;;;;;;;7.47;5.43;;;26.90;87.10;;;;;;5029746;28;20980;-77
2021/09/14 12:48:27;;;;;;;5.47;4.70;;;26.90;87.60;;;;;;5029817;28;20238;-76
2021/09/14 12:50:52;;;;;;;7.07;5.50;;;27.00;86.80;;;;;;5029230;28;20168;-76
2021/09/14 12:53:18;;;;;;;8.10;5.20;;;27.00;85.70;;;;;;5029536;28;20674;-76
2021/09/14 12:55:44;;;;;;;15.13;5.93;;;27.10;86.30;;;;;;5029339;28;20176;-77
2021/09/14 12:58:09;;;;;;;7.30;5.60;;;27.10;86.90;;;;;;5031239;28;20172;-77
2021/09/14 13:00:36;;;;;;;9.57;6.97;;;27.10;85.40;;;;;;5030909;28;20187;-76
2021/09/14 13:03:02;;;;;;;6.37;5.60;;;27.20;86.60;;;;;;5029859;28;20235;-77
2021/09/14 13:05:30;;;;;;;8.03;5.67;;;27.30;85.10;;;;;;5030800;28;20426;-77
2021/09/14 13:07:56;;;;;;;15.60;6.07;;;27.40;85.60;;;;;;5029505;28;20200;-76
2021/09/14 13:10:22;;;;;;;7.70;5.60;;;27.50;85.30;;;;;;5030469;28;20780;-77
2021/09/14 13:12:50;;;;;;;7.97;6.13;;;27.70;86.40;;;;;;5029192;28;20805;-76
2021/09/14 13:18:01;;;;;;;8.07;6.47;;;27.70;85.40;;;;;;5030988;28;20444;-76
2021/09/14 13:20:28;;;;;;;7.77;5.30;;;27.80;85.70;;;;;;5029249;28;20427;-77
2021/09/14 13:22:54;;;;;;;19.27;5.07;;;27.80;82.90;;;;;;5029078;28;20450;-77
2021/09/14 13:25:22;;;;;;;5.80;5.00;;;27.70;84.20;;;;;;5029277;28;20476;-77
2021/09/14 13:27:48;;;;;;;12.03;5.13;;;27.70;84.80;;;;;;5030228;28;20461;-77
2021/09/14 13:30:13;;;;;;;6.53;4.60;;;27.80;86.30;;;;;;5030455;28;20467;-77
2021/09/14 13:32:39;;;;;;;7.80;6.70;;;27.80;85.60;;;;;;5043699;28;20452;-77
2021/09/14 13:35:05;;;;;;;7.80;6.20;;;27.90;83.40;;;;;;5049119;28;20234;-76
2021/09/14 13:37:32;;;;;;;8.17;5.90;;;27.80;83.10;;;;;;5050245;28;20172;-76